createdAt,value
2018-12-25T00:02:16.881Z,100920.84
2018-12-25T00:04:49.407Z,100913.47
2018-12-25T00:07:20.379Z,100918.25
2018-12-25T00:09:50.419Z,100917.75
2018-12-25T00:12:20.059Z,100927.75
2018-12-25T00:14:49.487Z,100924.67
2018-12-25T00:17:19.880Z,100925.98
2018-12-25T00:20:00.342Z,100932.09
2018-12-25T00:22:32.528Z,100939.95
2018-12-25T00:25:01.792Z,100945.14
2018-12-25T00:27:32.265Z,100943.00
2018-12-25T00:30:02.014Z,100935.60
2018-12-25T00:32:31.970Z,100938.67
2018-12-25T00:35:01.562Z,100941.28
2018-12-25T00:37:32.257Z,100948.24
2018-12-25T00:40:04.939Z,100937.81
2018-12-25T00:42:34.170Z,100936.47
2018-12-25T00:45:04.614Z,100939.55
2018-12-25T00:47:36.333Z,100939.55
2018-12-25T00:50:06.048Z,100938.64
2018-12-25T00:52:36.569Z,100939.95
2018-12-25T00:55:06.174Z,100935.17
2018-12-25T00:57:39.379Z,100928.67
2018-12-25T01:00:09.526Z,100935.22
2018-12-25T01:02:39.963Z,100936.95
2018-12-25T01:05:15.454Z,100945.22
2018-12-25T01:07:47.917Z,100948.70
2018-12-25T01:10:17.512Z,100953.95
2018-12-25T01:12:47.031Z,100944.78
2018-12-25T01:15:20.567Z,100944.81
2018-12-25T01:17:56.412Z,100946.52
2018-12-25T01:20:28.061Z,100939.58
2018-12-25T01:22:58.238Z,100943.49
2018-12-25T01:25:27.740Z,100943.48
2018-12-25T01:28:01.420Z,100945.23
2018-12-25T01:30:33.022Z,100938.28
2018-12-25T01:33:04.848Z,100940.88
2018-12-25T01:35:37.589Z,100945.25
2018-12-25T01:38:06.862Z,100944.38
2018-12-25T01:40:36.924Z,100944.80
2018-12-25T01:43:06.719Z,100947.43
2018-12-25T01:45:44.422Z,100951.38
2018-12-25T01:48:18.547Z,100954.84
2018-12-25T01:50:48.729Z,100957.02
2018-12-25T01:53:19.052Z,100944.41
2018-12-25T01:55:53.899Z,100947.45
2018-12-25T01:58:26.491Z,100962.69
2018-12-25T02:01:00.090Z,100963.98
2018-12-25T02:03:30.168Z,100968.30
2018-12-25T02:05:59.932Z,100966.59
2018-12-25T02:08:29.761Z,100970.53
2018-12-25T02:11:03.869Z,100970.95
2018-12-25T02:13:36.860Z,100957.78
2018-12-25T02:16:12.032Z,100961.23
2018-12-25T02:18:45.037Z,100961.70
2018-12-25T02:21:15.392Z,100956.08
2018-12-25T02:23:44.988Z,100953.92
2018-12-25T02:26:14.202Z,100953.07
2018-12-25T02:28:44.342Z,100951.78
2018-12-25T02:31:15.463Z,100957.42
2018-12-25T02:33:45.873Z,100963.97
2018-12-25T02:36:16.061Z,100955.66
2018-12-25T02:38:50.108Z,100947.86
2018-12-25T02:41:23.005Z,100962.64
2018-12-25T02:43:57.879Z,100964.39
2018-12-25T02:46:28.192Z,100952.65
2018-12-25T02:48:57.764Z,100964.86
2018-12-25T02:51:28.802Z,100972.66
2018-12-25T02:53:59.547Z,100967.00
2018-12-25T02:56:31.207Z,100957.84
2018-12-25T02:59:04.079Z,100960.02
2018-12-25T03:01:37.363Z,100961.32
2018-12-25T03:04:07.707Z,100959.14
2018-12-25T03:06:39.307Z,100953.50
2018-12-25T03:09:10.425Z,100953.47
2018-12-25T03:11:40.429Z,100955.20
2018-12-25T03:14:10.098Z,100952.59
2018-12-25T03:16:40.246Z,100947.84
2018-12-25T03:19:10.354Z,100950.88
2018-12-25T03:21:39.886Z,100949.14
2018-12-25T03:24:13.258Z,100951.31
2018-12-25T03:26:45.948Z,100946.94
2018-12-25T03:29:15.795Z,100952.19
2018-12-25T03:31:45.598Z,100953.48
2018-12-25T03:34:19.098Z,100943.91
2018-12-25T03:36:48.616Z,100940.00
2018-12-25T03:39:18.416Z,100938.67
2018-12-25T03:41:49.215Z,100929.97
2018-12-25T03:44:28.825Z,100933.45
2018-12-25T03:46:58.662Z,100936.06
2018-12-25T03:49:28.164Z,100939.57
2018-12-25T03:52:00.425Z,100946.09
2018-12-25T03:54:30.060Z,100942.61
2018-12-25T03:57:02.177Z,100935.25
2018-12-25T03:59:31.670Z,100925.20
2018-12-25T04:02:01.824Z,100940.86
2018-12-25T04:04:35.346Z,100929.95
2018-12-25T04:07:09.227Z,100933.45
2018-12-25T04:09:40.739Z,100930.88
2018-12-25T04:12:10.121Z,100923.02
2018-12-25T04:14:39.606Z,100936.52
2018-12-25T04:17:16.569Z,100932.60
2018-12-25T04:19:50.572Z,100928.71
2018-12-25T04:22:19.836Z,100931.73
2018-12-25T04:24:50.169Z,100933.05
2018-12-25T04:27:22.517Z,100926.06
2018-12-25T04:29:55.616Z,100919.99
2018-12-25T04:32:25.947Z,100935.63
2018-12-25T04:34:56.353Z,100929.95
2018-12-25T04:37:26.158Z,100921.69
2018-12-25T04:39:56.053Z,100915.59
2018-12-25T04:42:25.888Z,100922.55
2018-12-25T04:44:55.226Z,100924.30
2018-12-25T04:47:27.943Z,100918.23
2018-12-25T04:49:57.454Z,100912.59
2018-12-25T04:52:30.233Z,100913.41
2018-12-25T04:55:00.998Z,100896.45
2018-12-25T04:57:32.640Z,100897.36
2018-12-25T05:00:03.132Z,100896.41
2018-12-25T05:02:37.582Z,100902.06
2018-12-25T05:05:08.182Z,100894.27
2018-12-25T05:07:39.175Z,100892.96
2018-12-25T05:10:11.646Z,100896.00
2018-12-25T05:12:42.276Z,100900.37
2018-12-25T05:15:15.023Z,100908.63
2018-12-25T05:17:47.062Z,100910.40
2018-12-25T05:20:21.146Z,100920.84
2018-12-25T05:22:53.441Z,100914.74
2018-12-25T05:25:25.436Z,100920.41
2018-12-25T05:27:58.975Z,100921.25
2018-12-25T05:30:31.409Z,100916.88
2018-12-25T05:33:01.555Z,100916.47
2018-12-25T05:35:31.238Z,100909.05
2018-12-25T05:38:05.687Z,100906.91
2018-12-25T05:40:35.760Z,100897.77
2018-12-25T05:43:05.282Z,100907.33
2018-12-25T05:45:36.088Z,100908.20
2018-12-25T05:48:07.905Z,100900.83
2018-12-25T05:50:37.645Z,100903.86
2018-12-25T05:53:08.834Z,100913.88
2018-12-25T05:55:47.423Z,100913.45
2018-12-25T05:58:18.462Z,100905.16
2018-12-25T06:00:48.258Z,100919.53
2018-12-25T06:03:18.043Z,100923.45
2018-12-25T06:05:48.090Z,100916.03
2018-12-25T06:08:19.564Z,100914.72
2018-12-25T06:10:50.398Z,100920.84
2018-12-25T06:13:22.955Z,100923.02
2018-12-25T06:15:52.211Z,100919.09
2018-12-25T06:18:24.505Z,100923.02
2018-12-25T06:20:55.186Z,100928.67
2018-12-25T06:23:26.891Z,100932.99
2018-12-25T06:25:57.928Z,100939.92
2018-12-25T06:28:31.634Z,100940.39
2018-12-25T06:31:02.921Z,100946.45
2018-12-25T06:33:35.041Z,100948.63
2018-12-25T06:36:04.603Z,100949.96
2018-12-25T06:38:36.149Z,100950.36
2018-12-25T06:41:07.621Z,100953.34
2018-12-25T06:43:37.210Z,100947.25
2018-12-25T06:46:09.797Z,100943.30
2018-12-25T06:48:39.103Z,100933.77
2018-12-25T06:51:13.490Z,100939.45
2018-12-25T06:53:43.819Z,100947.32
2018-12-25T06:56:17.438Z,100938.98
2018-12-25T06:58:51.888Z,100928.16
2018-12-25T07:01:25.585Z,100931.55
2018-12-25T07:03:57.090Z,100933.80
2018-12-25T07:06:26.456Z,100945.52
2018-12-25T07:08:57.325Z,100947.25
2018-12-25T07:11:28.660Z,100944.23
2018-12-25T07:13:59.022Z,100944.23
2018-12-25T07:16:29.342Z,100936.45
2018-12-25T07:18:59.180Z,100936.45
2018-12-25T07:21:28.706Z,100936.41
2018-12-25T07:24:11.023Z,100936.45
2018-12-25T07:26:45.159Z,100933.40
2018-12-25T07:29:50.438Z,100933.40
2018-12-25T07:32:58.537Z,100923.38
2018-12-25T07:35:32.011Z,100913.39
2018-12-25T07:38:04.269Z,100919.95
2018-12-25T07:40:36.918Z,100921.63
2018-12-25T07:43:08.558Z,100924.70
2018-12-25T07:45:38.894Z,100920.33
2018-12-25T07:48:16.402Z,100907.74
2018-12-25T07:51:01.238Z,100915.98
2018-12-25T07:53:54.213Z,100911.22
2018-12-25T07:56:26.604Z,100901.19
2018-12-25T07:58:56.689Z,100902.93
2018-12-25T08:02:03.590Z,100900.79
2018-12-25T08:04:39.908Z,100907.73
2018-12-25T08:07:12.452Z,100904.70
2018-12-25T08:09:43.588Z,100909.02
2018-12-25T08:12:19.037Z,100919.89
2018-12-25T08:14:50.564Z,100916.47
2018-12-25T08:17:20.182Z,100913.39
2018-12-25T08:19:49.889Z,100909.08
2018-12-25T08:22:19.970Z,100915.16
2018-12-25T08:24:52.056Z,100909.06
2018-12-25T08:27:31.614Z,100923.38
2018-12-25T08:30:08.179Z,100920.38
2018-12-25T08:32:40.572Z,100913.40
2018-12-25T08:35:13.764Z,100922.55
2018-12-25T08:38:05.112Z,100931.71
2018-12-25T08:40:40.739Z,100932.61
2018-12-25T08:43:19.061Z,100932.13
2018-12-25T08:45:49.000Z,100923.80
2018-12-25T08:48:30.849Z,100924.70
2018-12-25T08:51:01.845Z,100931.71
2018-12-25T08:53:34.989Z,100923.89
2018-12-25T08:56:05.886Z,100919.95
2018-12-25T08:58:40.473Z,100930.42
2018-12-25T09:01:18.029Z,100939.56
2018-12-25T09:03:58.565Z,100930.44
2018-12-25T09:06:30.216Z,100935.66
2018-12-25T09:09:03.404Z,100937.86
2018-12-25T09:11:37.209Z,100938.25
2018-12-25T09:14:11.282Z,100931.31
2018-12-25T09:16:45.633Z,100929.13
2018-12-25T09:19:32.070Z,100915.63
2018-12-25T09:22:13.910Z,100920.38
2018-12-25T09:24:52.422Z,100934.30
2018-12-25T09:27:27.275Z,100932.09
2018-12-25T09:30:09.013Z,100933.44
2018-12-25T09:32:39.382Z,100931.30
2018-12-25T09:35:10.206Z,100935.64
2018-12-25T09:37:41.136Z,100943.94
2018-12-25T09:40:11.049Z,100941.34
2018-12-25T09:42:41.348Z,100943.50
2018-12-25T09:45:14.479Z,100941.77
2018-12-25T09:47:47.867Z,100940.91
2018-12-25T09:50:24.387Z,100940.47
2018-12-25T09:52:56.706Z,100938.31
2018-12-25T09:55:36.309Z,100940.94
2018-12-25T09:58:07.613Z,100934.38
2018-12-25T10:00:38.343Z,100930.89
2018-12-25T10:03:07.597Z,100927.43
2018-12-25T10:05:38.217Z,100930.03
2018-12-25T10:08:25.796Z,100920.45
2018-12-25T10:11:00.607Z,100919.58
2018-12-25T10:13:31.526Z,100904.33
2018-12-25T10:16:04.104Z,100901.28
2018-12-25T10:18:36.385Z,100887.80
2018-12-25T10:21:08.511Z,100887.36
2018-12-25T10:23:37.983Z,100897.81
2018-12-25T10:26:08.954Z,100903.47
2018-12-25T10:28:40.010Z,100903.86
2018-12-25T10:31:09.478Z,100900.80
2018-12-25T10:33:40.268Z,100896.88
2018-12-25T10:36:13.990Z,100893.84
2018-12-25T10:38:49.095Z,100898.21
2018-12-25T10:41:20.183Z,100900.83
2018-12-25T10:43:59.192Z,100905.63
2018-12-25T10:46:28.832Z,100909.56
2018-12-25T10:48:59.979Z,100918.70
2018-12-25T10:51:29.867Z,100920.89
2018-12-25T10:53:59.142Z,100921.34
2018-12-25T10:56:28.712Z,100911.75
2018-12-25T10:58:58.248Z,100902.61
2018-12-25T11:01:29.976Z,100896.08
2018-12-25T11:03:59.590Z,100894.33
2018-12-25T11:06:28.830Z,100891.69
2018-12-25T11:08:58.088Z,100882.51
2018-12-25T11:11:28.137Z,100880.34
2018-12-25T11:13:57.427Z,100875.05
2018-12-25T11:16:27.323Z,100868.47
2018-12-25T11:18:57.317Z,100865.38
2018-12-25T11:21:26.863Z,100870.59
2018-12-25T11:23:56.901Z,100865.77
2018-12-25T11:26:26.148Z,100866.16
2018-12-25T11:28:55.605Z,100862.30
2018-12-25T11:31:24.815Z,100860.91
2018-12-25T11:33:54.067Z,100863.22
2018-12-25T11:36:23.309Z,100856.80
2018-12-25T11:38:52.576Z,100843.20
2018-12-25T11:41:22.120Z,100839.30
2018-12-25T11:43:52.171Z,100844.00
2018-12-25T11:46:21.426Z,100841.45
2018-12-25T11:48:51.555Z,100845.23
2018-12-25T11:51:22.303Z,100847.40
2018-12-25T11:53:51.538Z,100843.45
2018-12-25T11:56:20.809Z,100844.45
2018-12-25T11:58:50.038Z,100850.34
2018-12-25T12:01:19.292Z,100855.58
2018-12-25T12:03:48.522Z,100853.17
2018-12-25T12:06:19.889Z,100855.64
2018-12-25T12:08:50.394Z,100856.22
2018-12-25T12:11:20.458Z,100854.61
2018-12-25T12:13:49.986Z,100851.63
2018-12-25T12:16:23.071Z,100846.56
2018-12-25T12:18:52.569Z,100847.77
2018-12-25T12:21:23.253Z,100851.08
2018-12-25T12:23:57.379Z,100863.73
2018-12-25T12:26:29.395Z,100850.03
2018-12-25T12:28:59.040Z,100849.62
2018-12-25T12:31:29.911Z,100858.02
2018-12-25T12:33:59.990Z,100858.91
2018-12-25T12:36:30.807Z,100869.33
2018-12-25T12:39:00.661Z,100862.29
2018-12-25T12:41:30.738Z,100870.66
2018-12-25T12:43:59.965Z,100867.42
2018-12-25T12:46:29.917Z,100878.79
2018-12-25T12:48:59.412Z,100869.75
2018-12-25T12:51:29.323Z,100874.63
2018-12-25T12:54:00.057Z,100867.27
2018-12-25T12:56:30.121Z,100866.48
2018-12-25T12:58:59.905Z,100866.05
2018-12-25T13:01:30.559Z,100880.92
2018-12-25T13:04:05.809Z,100877.90
2018-12-25T13:06:35.548Z,100873.55
2018-12-25T13:09:14.398Z,100871.34
2018-12-25T13:11:45.121Z,100870.83
2018-12-25T13:14:14.616Z,100872.54
2018-12-25T13:16:44.143Z,100871.81
2018-12-25T13:19:14.932Z,100865.20
2018-12-25T13:21:44.995Z,100860.80
2018-12-25T13:24:17.223Z,100860.87
2018-12-25T13:26:47.543Z,100868.16
2018-12-25T13:29:19.129Z,100876.64
2018-12-25T13:31:49.849Z,100876.51
2018-12-25T13:34:20.482Z,100876.53
2018-12-25T13:36:53.662Z,100881.17
2018-12-25T13:39:24.733Z,100892.46
2018-12-25T13:41:55.147Z,100886.67
2018-12-25T13:44:25.020Z,100884.93
2018-12-25T13:46:55.726Z,100886.16
2018-12-25T13:49:26.421Z,100882.59
2018-12-25T13:51:56.992Z,100883.02
2018-12-25T13:54:26.356Z,100873.02
2018-12-25T13:56:55.650Z,100876.02
2018-12-25T13:59:26.067Z,100875.14
2018-12-25T14:01:56.167Z,100882.66
2018-12-25T14:04:28.567Z,100877.05
2018-12-25T14:06:59.303Z,100873.44
2018-12-25T14:09:36.819Z,100878.37
2018-12-25T14:12:08.853Z,100870.03
2018-12-25T14:14:39.455Z,100873.55
2018-12-25T14:17:12.348Z,100876.95
2018-12-25T14:19:44.297Z,100877.77
2018-12-25T14:22:13.554Z,100880.91
2018-12-25T14:24:44.862Z,100875.58
2018-12-25T14:27:15.008Z,100884.88
2018-12-25T14:30:16.427Z,100886.10
2018-12-25T14:32:50.855Z,100880.02
2018-12-25T14:35:22.348Z,100881.41
2018-12-25T14:37:53.809Z,100888.92
2018-12-25T14:40:24.658Z,100897.23
2018-12-25T14:43:00.009Z,100898.64
2018-12-25T14:45:35.856Z,100905.19
2018-12-25T14:48:07.987Z,100904.37
2018-12-25T14:50:48.535Z,100901.25
2018-12-25T14:53:20.822Z,100906.48
2018-12-25T14:55:57.645Z,100901.70
2018-12-25T14:58:29.038Z,100906.57
2018-12-25T15:01:03.002Z,100909.62
2018-12-25T15:03:34.460Z,100905.77
2018-12-25T15:06:04.949Z,100900.08
2018-12-25T15:08:37.712Z,100904.86
2018-12-25T15:11:07.474Z,100900.91
2018-12-25T15:13:37.073Z,100907.85
2018-12-25T15:16:07.490Z,100904.39
2018-12-25T15:18:38.253Z,100911.31
2018-12-25T15:21:10.970Z,100908.73
2018-12-25T15:23:42.600Z,100913.20
2018-12-25T15:26:18.153Z,100910.12
2018-12-25T15:28:47.578Z,100915.39
2018-12-25T15:31:33.964Z,100916.23
2018-12-25T15:34:06.539Z,100913.64
2018-12-25T15:36:36.730Z,100914.06
2018-12-25T15:39:12.511Z,100914.55
2018-12-25T15:41:44.350Z,100909.30
2018-12-25T15:44:22.885Z,100907.56
2018-12-25T15:46:59.791Z,100906.69
2018-12-25T15:49:29.602Z,100902.86
2018-12-25T15:51:58.972Z,100902.88
2018-12-25T15:54:31.950Z,100904.14
2018-12-25T15:57:07.440Z,100898.02
2018-12-25T15:59:39.418Z,100904.98
2018-12-25T16:02:12.289Z,100902.31
2018-12-25T16:04:45.986Z,100901.86
2018-12-25T16:07:36.788Z,100908.41
2018-12-25T16:10:11.231Z,100906.66
2018-12-25T16:12:40.507Z,100910.63
2018-12-25T16:15:21.584Z,100904.09
2018-12-25T16:17:51.683Z,100910.63
2018-12-25T16:20:21.722Z,100904.19
2018-12-25T16:22:52.473Z,100912.86
2018-12-25T16:25:21.834Z,100912.90
2018-12-25T16:27:51.119Z,100914.23
2018-12-25T16:30:20.367Z,100925.08
2018-12-25T16:32:51.154Z,100928.51
2018-12-25T16:35:20.630Z,100924.63
2018-12-25T16:37:52.144Z,100922.44
2018-12-25T16:40:22.639Z,100925.92
2018-12-25T16:43:04.625Z,100925.50
2018-12-25T16:45:33.963Z,100927.70
2018-12-25T16:48:03.493Z,100928.05
2018-12-25T16:50:32.716Z,100928.51
2018-12-25T16:53:02.025Z,100921.56
2018-12-25T16:55:31.287Z,100920.23
2018-12-25T16:58:00.534Z,100924.19
2018-12-25T17:00:29.806Z,100930.25
2018-12-25T17:02:59.025Z,100929.83
2018-12-25T17:05:28.845Z,100923.23
2018-12-25T17:07:58.075Z,100926.75
2018-12-25T17:10:27.375Z,100922.86
2018-12-25T17:12:57.433Z,100918.48
2018-12-25T17:15:26.704Z,100915.88
2018-12-25T17:17:56.199Z,100922.83
2018-12-25T17:20:25.477Z,100915.44
2018-12-25T17:22:55.478Z,100915.95
2018-12-25T17:25:28.515Z,100916.80
2018-12-25T17:27:58.100Z,100922.50
2018-12-25T17:30:30.000Z,100924.18
2018-12-25T17:33:25.541Z,100922.02
2018-12-25T17:36:04.489Z,100928.11
2018-12-25T17:38:34.067Z,100925.99
2018-12-25T17:41:05.688Z,100927.33
2018-12-25T17:43:40.733Z,100930.35
2018-12-25T17:46:11.712Z,100929.05
2018-12-25T17:48:41.582Z,100929.44
2018-12-25T17:51:28.652Z,100923.32
2018-12-25T17:54:10.682Z,100934.20
2018-12-25T17:56:38.181Z,100940.73
2018-12-25T17:59:14.564Z,100936.39
2018-12-25T18:01:43.846Z,100935.52
2018-12-25T18:04:16.142Z,100930.72
2018-12-25T18:06:48.522Z,100937.28
2018-12-25T18:09:18.263Z,100937.23
2018-12-25T18:11:48.566Z,100939.89
2018-12-25T18:14:22.203Z,100938.56
2018-12-25T18:16:59.315Z,100937.70
2018-12-25T18:19:36.570Z,100932.02
2018-12-25T18:22:05.929Z,100932.48
2018-12-25T18:24:37.179Z,100926.80
2018-12-25T18:27:08.962Z,100928.52
2018-12-25T18:29:38.557Z,100928.11
2018-12-25T18:32:07.818Z,100919.43
2018-12-25T18:34:37.067Z,100923.34
2018-12-25T18:37:06.466Z,100929.50
2018-12-25T18:39:36.479Z,100927.73
2018-12-25T18:42:05.814Z,100929.03
2018-12-25T18:44:35.130Z,100932.52
2018-12-25T18:47:05.386Z,100944.32
2018-12-25T18:49:44.434Z,100929.02
2018-12-25T18:52:14.395Z,100930.80
2018-12-25T18:54:52.280Z,100931.17
2018-12-25T18:57:25.131Z,100929.05
2018-12-25T19:00:05.092Z,100926.00
2018-12-25T19:02:50.511Z,100925.55
2018-12-25T19:05:26.533Z,100925.14
2018-12-25T19:07:56.889Z,100927.34
2018-12-25T19:10:26.518Z,100920.77
2018-12-25T19:12:55.809Z,100926.45
2018-12-25T19:15:30.001Z,100928.63
2018-12-25T19:18:05.352Z,100926.42
2018-12-25T19:20:35.243Z,100931.25
2018-12-25T19:23:06.333Z,100919.91
2018-12-25T19:25:35.654Z,100915.55
2018-12-25T19:28:04.918Z,100912.94
2018-12-25T19:30:36.376Z,100904.23
2018-12-25T19:33:06.277Z,100915.55
2018-12-25T19:35:36.639Z,100905.07
2018-12-25T19:38:06.366Z,100908.56
2018-12-25T19:40:37.450Z,100905.09
2018-12-25T19:43:09.659Z,100892.91
2018-12-25T19:45:56.878Z,100896.02
2018-12-25T19:48:36.858Z,100892.95
2018-12-25T19:51:06.845Z,100893.40
2018-12-25T19:53:49.554Z,100896.87
2018-12-25T19:56:20.582Z,100893.80
2018-12-25T19:59:06.964Z,100896.45
2018-12-25T20:01:37.274Z,100901.70
2018-12-25T20:04:39.190Z,100905.20
2018-12-25T20:07:37.475Z,100897.34
2018-12-25T20:10:36.464Z,100900.39
2018-12-25T20:13:44.090Z,100906.95
2018-12-25T20:16:59.230Z,100910.41
2018-12-25T20:20:09.141Z,100910.41
2018-12-25T20:23:29.383Z,100907.84
2018-12-25T20:26:25.135Z,100898.27
2018-12-25T20:29:27.129Z,100886.49
2018-12-25T20:32:33.502Z,100890.42
2018-12-25T20:35:50.054Z,100894.77
2018-12-25T20:39:05.518Z,100885.17
2018-12-25T20:42:14.403Z,100882.55
2018-12-25T20:45:19.252Z,100878.65
2018-12-25T20:48:22.198Z,100877.34
2018-12-25T20:51:27.790Z,100878.65
2018-12-25T20:54:26.275Z,100878.20
2018-12-25T20:57:32.023Z,100883.01
2018-12-25T21:00:48.090Z,100880.81
2018-12-25T21:04:08.102Z,100884.77
2018-12-25T21:07:30.369Z,100886.06
2018-12-25T21:10:38.579Z,100889.98
2018-12-25T21:13:58.999Z,100889.97
2018-12-25T21:16:59.844Z,100886.94
2018-12-25T21:19:52.682Z,100886.52
2018-12-25T21:22:57.679Z,100884.33
2018-12-25T21:26:02.280Z,100882.58
2018-12-25T21:28:34.407Z,100877.36
2018-12-25T21:31:05.275Z,100875.17
2018-12-25T21:33:36.336Z,100885.19
2018-12-25T21:36:08.024Z,100887.78
2018-12-25T21:38:39.382Z,100883.45
2018-12-25T21:41:12.102Z,100885.19
2018-12-25T21:43:41.660Z,100882.15
2018-12-25T21:46:22.774Z,100882.56
2018-12-25T21:48:52.995Z,100886.05
2018-12-25T21:51:23.318Z,100881.69
2018-12-25T21:53:53.131Z,100883.90
2018-12-25T21:56:23.825Z,100881.71
2018-12-25T21:58:54.331Z,100877.77
2018-12-25T22:01:23.902Z,100879.09
2018-12-25T22:03:54.263Z,100875.19
2018-12-25T22:06:27.160Z,100869.08
2018-12-25T22:08:56.432Z,100866.02
2018-12-25T22:11:26.647Z,100863.41
2018-12-25T22:13:58.332Z,100871.69
2018-12-25T22:16:27.966Z,100866.91
2018-12-25T22:18:59.332Z,100859.09
2018-12-25T22:21:28.838Z,100849.50
2018-12-25T22:23:59.453Z,100859.50
2018-12-25T22:26:29.065Z,100865.16
2018-12-25T22:28:58.949Z,100854.27
2018-12-25T22:31:28.998Z,100855.17
2018-12-25T22:33:59.548Z,100845.59
2018-12-25T22:36:28.895Z,100848.64
2018-12-25T22:39:01.371Z,100855.16
2018-12-25T22:41:34.149Z,100847.31
2018-12-25T22:44:03.425Z,100848.19
2018-12-25T22:46:32.680Z,100849.94
2018-12-25T22:49:02.973Z,100835.58
2018-12-25T22:51:35.062Z,100833.84
2018-12-25T22:54:08.663Z,100836.89
2018-12-25T22:56:40.904Z,100845.13
2018-12-25T22:59:11.163Z,100843.83
2018-12-25T23:01:40.828Z,100846.02
2018-12-25T23:04:10.451Z,100846.89
2018-12-25T23:06:40.261Z,100845.56
2018-12-25T23:09:10.696Z,100841.66
2018-12-25T23:11:41.673Z,100837.72
2018-12-25T23:14:17.216Z,100835.98
2018-12-25T23:16:47.831Z,100831.63
2018-12-25T23:19:19.684Z,100831.20
2018-12-25T23:21:48.932Z,100839.88
2018-12-25T23:24:18.774Z,100855.97
2018-12-25T23:26:51.667Z,100850.31
2018-12-25T23:29:23.980Z,100844.64
2018-12-25T23:31:56.912Z,100836.79
2018-12-25T23:34:26.176Z,100837.28
2018-12-25T23:36:55.959Z,100832.02
2018-12-25T23:39:25.780Z,100836.39
2018-12-25T23:41:56.103Z,100833.77
2018-12-25T23:44:30.445Z,100842.47
2018-12-25T23:46:59.667Z,100844.64
2018-12-25T23:49:29.987Z,100839.00
2018-12-25T23:52:04.228Z,100827.64
2018-12-25T23:54:38.374Z,100833.73
2018-12-25T23:57:09.637Z,100837.17
2018-12-25T23:59:42.333Z,100827.61
